Time;durP1;ratioP1;P1;durP2;ratioP2;P2;SDS_P1;SDS_P2;PMS_P1;PMS_P2;Temp;Humidity;BMP_temperature;BMP_pressure;BME280_temperature;BME280_humidity;BME280_pressure;Samples;Min_cycle;Max_cycle;Signal;HPM_P1;HPM_P2
2022/12/23 00:02:01;;;;;;;23.15;12.73;;;;;;;-143.48;100.00;118439.88;5065942;28;20112;-68
2022/12/23 00:04:27;;;;;;;21.95;11.82;;;;;;;-143.48;100.00;118439.88;5049601;28;20096;-67
2022/12/23 00:06:52;;;;;;;21.77;11.95;;;;;;;-143.48;100.00;118439.88;5066930;28;20056;-67
2022/12/23 00:09:17;;;;;;;25.27;12.45;;;;;;;-143.48;100.00;118439.88;5054001;28;20029;-66
2022/12/23 00:15:04;;;;;;;22.45;12.70;;;;;;;-143.48;100.00;118439.88;5053732;28;20103;-67
2022/12/23 00:17:12;;;;;;;22.08;10.55;;;;;;;-143.48;100.00;118439.88;5057046;28;20036;-67
2022/12/23 00:19:37;;;;;;;19.98;10.50;;;;;;;-143.48;100.00;118439.88;5058788;28;20017;-66
2022/12/23 00:22:02;;;;;;;19.33;10.52;;;;;;;-143.48;100.00;118439.88;5057763;28;20087;-67
2022/12/23 00:24:27;;;;;;;22.38;10.43;;;;;;;-143.48;100.00;118439.88;5063747;28;20049;-66
2022/12/23 00:26:53;;;;;;;19.27;9.85;;;;;;;-143.48;100.00;118439.88;5059010;28;20025;-67
2022/12/23 00:29:18;;;;;;;20.73;9.65;;;;;;;-143.48;100.00;118439.88;5056304;28;20104;-67
2022/12/23 00:31:43;;;;;;;24.08;9.23;;;;;;;-143.48;100.00;118439.88;5057487;28;20081;-68
2022/12/23 00:34:09;;;;;;;19.10;9.55;;;;;;;-143.48;100.00;118439.88;5038806;28;20423;-68
2022/12/23 00:36:37;;;;;;;20.63;9.48;;;;;;;-143.48;100.00;118439.88;5038785;28;20496;-67
2022/12/23 00:44:30;;;;;;;17.45;9.10;;;;;;;-143.48;100.00;118439.88;5056456;28;20071;-67
2022/12/23 00:46:55;;;;;;;23.15;9.65;;;;;;;-143.48;100.00;118439.88;5056457;28;20056;-67
2022/12/23 00:52:09;;;;;;;19.83;9.27;;;;;;;-143.48;100.00;118439.88;5056672;28;20377;-67
2022/12/23 00:54:34;;;;;;;18.70;9.70;;;;;;;-143.48;100.00;118439.88;5038668;28;20027;-67
2022/12/23 00:57:00;;;;;;;21.08;9.77;;;;;;;-143.48;100.00;118439.88;5056160;28;20364;-68
2022/12/23 00:59:25;;;;;;;22.90;9.68;;;;;;;-143.48;100.00;118439.88;5038510;28;20051;-67
2022/12/23 01:07:19;;;;;;;19.25;8.55;;;;;;;-143.48;100.00;118439.88;5055972;28;20167;-67
2022/12/23 01:09:45;;;;;;;19.23;8.63;;;;;;;-143.48;100.00;118439.88;5056256;28;20022;-67
2022/12/23 01:12:10;;;;;;;20.35;8.32;;;;;;;-143.48;100.00;118439.88;5055909;28;20021;-67
2022/12/23 01:14:36;;;;;;;25.95;8.98;;;;;;;-143.48;100.00;118439.88;5055832;28;20029;-67
2022/12/23 01:17:01;;;;;;;22.55;8.75;;;;;;;-143.48;100.00;118439.88;5037137;28;20376;-67
2022/12/23 01:19:27;;;;;;;17.63;8.73;;;;;;;-143.48;100.00;118439.88;5056015;28;20029;-68
2022/12/23 01:21:53;;;;;;;19.45;8.63;;;;;;;-143.48;100.00;118439.88;5055669;28;20031;-67
2022/12/23 01:24:18;;;;;;;20.92;8.95;;;;;;;-143.48;100.00;118439.88;5055375;28;20140;-67
2022/12/23 01:26:44;;;;;;;21.90;8.68;;;;;;;-143.48;100.00;118439.88;5055733;28;20452;-68
2022/12/23 01:29:10;;;;;;;20.20;8.82;;;;;;;-143.48;100.00;118439.88;5053301;28;20025;-67
2022/12/23 01:31:35;;;;;;;26.83;9.25;;;;;;;-143.48;100.00;118439.88;5055667;28;20025;-67
2022/12/23 01:34:00;;;;;;;24.88;9.32;;;;;;;-143.48;100.00;118439.88;5054796;28;20025;-67
2022/12/23 01:36:26;;;;;;;21.25;8.90;;;;;;;-143.48;100.00;118439.88;5054386;28;20021;-68
2022/12/23 01:38:51;;;;;;;20.23;9.30;;;;;;;-143.48;100.00;118439.88;5053730;28;20024;-68
2022/12/23 01:44:43;;;;;;;24.95;8.88;;;;;;;-143.48;99.96;118439.88;5054612;28;20090;-68
2022/12/23 01:47:12;;;;;;;21.30;9.10;;;;;;;-143.48;99.94;118439.88;5036498;28;20040;-67
2022/12/23 01:49:39;;;;;;;19.08;9.70;;;;;;;-143.48;99.71;118439.88;5054943;28;20719;-68
2022/12/23 01:52:04;;;;;;;20.90;8.95;;;;;;;-143.48;99.61;118439.88;5055254;28;20028;-67
2022/12/23 01:54:30;;;;;;;21.23;9.27;;;;;;;-143.48;99.65;118439.88;5055178;28;20449;-67
2022/12/23 01:56:55;;;;;;;19.58;8.77;;;;;;;-143.48;99.40;118439.88;5054909;28;20025;-67
2022/12/23 02:04:50;;;;;;;19.08;9.20;;;;;;;-143.48;100.00;118439.88;5055368;28;20120;-67
2022/12/23 02:10:01;;;;;;;20.65;9.63;;;;;;;-143.48;99.60;118439.88;5055137;28;20495;-67
2022/12/23 02:12:51;;;;;;;19.33;9.23;;;;;;;-143.48;98.99;118439.88;5036942;28;20032;-67
2022/12/23 02:18:20;;;;;;;21.77;8.55;;;;;;;-143.48;99.84;118439.88;5055046;28;20098;-67
2022/12/23 02:21:07;;;;;;;18.98;8.60;;;;;;;-143.48;99.58;118439.88;5036705;28;20029;-67
2022/12/23 02:24:03;;;;;;;16.67;8.07;;;;;;;-143.48;99.58;118439.88;5054679;28;20130;-67
2022/12/23 02:26:53;;;;;;;18.35;8.23;;;;;;;-143.48;99.58;118439.88;5036841;28;20060;-67
2022/12/23 02:29:25;;;;;;;21.77;8.80;;;;;;;-143.48;99.80;118439.88;5036921;28;20395;-67
2022/12/23 02:32:01;;;;;;;16.77;8.57;;;;;;;-143.48;99.74;118439.88;5054815;28;20021;-67
2022/12/23 02:34:41;;;;;;;18.17;8.43;;;;;;;-143.48;99.39;118439.88;5054512;28;20031;-67
2022/12/23 02:37:29;;;;;;;22.83;8.13;;;;;;;-143.48;99.43;118439.88;5054477;28;20029;-67
2022/12/23 02:40:30;;;;;;;18.75;7.75;;;;;;;-143.48;99.55;118439.88;5036192;28;20013;-67
2022/12/23 02:43:03;;;;;;;17.15;8.25;;;;;;;-143.48;99.35;118439.88;5051045;28;20040;-67
2022/12/23 02:45:40;;;;;;;18.52;7.78;;;;;;;-143.48;99.64;118439.88;5054457;28;20028;-67
2022/12/23 02:48:40;;;;;;;18.33;8.15;;;;;;;-143.48;99.64;118439.88;5054122;28;20481;-67
2022/12/23 02:51:08;;;;;;;19.40;8.10;;;;;;;-143.48;99.15;118439.88;5051091;28;20126;-67
2022/12/23 02:53:39;;;;;;;14.43;7.88;;;;;;;-143.48;99.47;118439.88;5036468;28;20035;-67
2022/12/23 02:56:07;;;;;;;15.73;7.70;;;;;;;-143.48;99.09;118439.88;5054420;28;20472;-67
2022/12/23 02:59:01;;;;;;;17.55;8.07;;;;;;;-143.48;99.61;118439.88;5054099;28;20029;-67
2022/12/23 03:01:30;;;;;;;19.60;8.40;;;;;;;-143.48;99.93;118439.88;5054048;28;20330;-67
2022/12/23 03:03:55;;;;;;;18.55;8.57;;;;;;;-143.48;100.00;118439.88;5054006;28;20029;-67
2022/12/23 03:06:28;;;;;;;17.92;9.00;;;;;;;-143.48;99.68;118439.88;5053938;28;20047;-67
2022/12/23 03:08:57;;;;;;;14.70;8.50;;;;;;;-143.48;99.99;118439.88;5035941;28;20549;-67
2022/12/23 03:11:38;;;;;;;15.88;8.00;;;;;;;-143.48;99.65;118439.88;5054106;28;20025;-68
2022/12/23 03:14:28;;;;;;;13.68;7.95;;;;;;;-143.48;99.81;118439.88;5036143;28;20057;-67
2022/12/23 03:17:15;;;;;;;17.70;8.07;;;;;;;-143.48;99.71;118439.88;5035893;28;20111;-67
2022/12/23 03:19:55;;;;;;;15.15;8.52;;;;;;;-143.48;99.69;118439.88;5053924;28;20488;-67
2022/12/23 03:22:34;;;;;;;16.25;8.43;;;;;;;-143.48;99.61;118439.88;5036523;28;20024;-67
2022/12/23 03:25:13;;;;;;;16.42;8.35;;;;;;;-143.48;99.92;118439.88;5035706;28;20135;-67
2022/12/23 03:27:49;;;;;;;15.80;8.43;;;;;;;-143.48;99.68;118439.88;5035800;28;20460;-67
2022/12/23 03:30:17;;;;;;;15.20;8.43;;;;;;;-143.48;100.00;118439.88;5053641;28;20017;-67
2022/12/23 03:32:53;;;;;;;13.90;8.13;;;;;;;-143.48;100.00;118439.88;5053665;28;20025;-67
2022/12/23 03:35:24;;;;;;;17.35;9.10;;;;;;;-143.48;99.94;118439.88;5053779;28;20028;-67
2022/12/23 03:37:53;;;;;;;14.60;8.35;;;;;;;-143.48;100.00;118439.88;5053607;28;20024;-67
2022/12/23 03:40:23;;;;;;;15.18;8.57;;;;;;;-143.48;99.73;118439.88;5035881;28;20013;-68
2022/12/23 03:42:55;;;;;;;16.15;9.15;;;;;;;-143.48;99.69;118439.88;5053724;28;20025;-67
2022/12/23 03:45:26;;;;;;;15.60;8.70;;;;;;;-143.48;99.86;118439.88;5053714;28;20032;-66
2022/12/23 03:48:03;;;;;;;18.00;8.55;;;;;;;-143.48;99.85;118439.88;5053661;28;20166;-66
2022/12/23 03:50:31;;;;;;;14.88;8.13;;;;;;;-143.48;99.44;118439.88;5053411;28;20456;-67
2022/12/23 03:53:10;;;;;;;17.25;8.60;;;;;;;-143.48;99.88;118439.88;5057413;28;20028;-66
2022/12/23 03:55:41;;;;;;;14.98;8.65;;;;;;;-143.48;99.66;118439.88;5039586;28;20020;-67
2022/12/23 03:58:16;;;;;;;21.88;8.60;;;;;;;-143.48;99.48;118439.88;5057645;28;20029;-67
2022/12/23 04:00:56;;;;;;;14.98;8.05;;;;;;;-143.48;99.83;118439.88;5039856;28;20023;-67
2022/12/23 04:03:46;;;;;;;13.35;8.40;;;;;;;-143.48;99.58;118439.88;5057481;28;20391;-67
2022/12/23 04:06:16;;;;;;;15.23;8.50;;;;;;;-143.48;99.64;118439.88;5057459;28;20497;-67
2022/12/23 04:08:44;;;;;;;14.85;8.45;;;;;;;-143.48;99.31;118439.88;5057466;28;20103;-67
2022/12/23 04:11:10;;;;;;;13.50;8.30;;;;;;;-143.48;99.86;118439.88;5057160;28;20032;-66
2022/12/23 04:13:36;;;;;;;15.77;8.40;;;;;;;-143.48;99.82;118439.88;5057338;28;20025;-66
2022/12/23 04:16:02;;;;;;;15.65;8.50;;;;;;;-143.48;99.82;118439.88;5057192;28;20029;-66
2022/12/23 04:18:28;;;;;;;17.90;8.85;;;;;;;-143.48;100.00;118439.88;5057217;28;20079;-67
2022/12/23 04:20:53;;;;;;;17.77;9.00;;;;;;;-143.48;99.71;118439.88;5057139;28;20409;-67
2022/12/23 04:23:18;;;;;;;15.95;8.43;;;;;;;-143.48;99.58;118439.88;5056905;28;20053;-66
2022/12/23 04:25:43;;;;;;;20.15;8.70;;;;;;;-143.48;99.66;118439.88;5056913;28;20029;-67
2022/12/23 04:28:09;;;;;;;19.13;8.85;;;;;;;-143.48;100.00;118439.88;5057070;28;20103;-67
2022/12/23 04:30:34;;;;;;;17.48;9.20;;;;;;;-143.48;100.00;118439.88;5038913;28;20036;-66
2022/12/23 04:32:59;;;;;;;20.73;8.88;;;;;;;-143.48;99.90;118439.88;5056840;28;20021;-67
2022/12/23 04:35:25;;;;;;;15.95;8.40;;;;;;;-143.48;99.50;118439.88;5057002;28;20027;-67
2022/12/23 04:37:50;;;;;;;17.85;8.60;;;;;;;-143.48;99.45;118439.88;5056811;28;20044;-67
2022/12/23 04:40:15;;;;;;;19.80;9.27;;;;;;;-143.48;99.49;118439.88;5056719;28;20037;-67
2022/12/23 04:42:41;;;;;;;15.50;8.55;;;;;;;-143.48;99.64;118439.88;5056650;28;20025;-67
2022/12/23 04:45:07;;;;;;;18.98;9.88;;;;;;;-143.48;99.43;118439.88;5056656;28;20108;-67
2022/12/23 04:47:32;;;;;;;18.05;9.20;;;;;;;-143.48;99.38;118439.88;5056753;28;20025;-66
2022/12/23 04:49:57;;;;;;;17.90;8.52;;;;;;;-143.48;99.27;118439.88;5056590;28;20112;-67
2022/12/23 04:52:23;;;;;;;20.25;9.00;;;;;;;-143.48;99.44;118439.88;5038938;28;20419;-67
2022/12/23 04:54:48;;;;;;;20.27;8.85;;;;;;;-143.48;99.11;118439.88;5056355;28;20123;-67
2022/12/23 04:57:15;;;;;;;16.92;8.32;;;;;;;-143.48;99.83;118439.88;5056489;28;20029;-67
2022/12/23 04:59:40;;;;;;;20.05;9.38;;;;;;;-143.48;99.72;118439.88;5056299;28;20025;-67
2022/12/23 05:02:05;;;;;;;18.17;9.43;;;;;;;-143.48;99.49;118439.88;5038250;28;20032;-67
2022/12/23 05:04:31;;;;;;;21.80;10.15;;;;;;;-143.48;99.47;118439.88;5038391;28;20083;-67
2022/12/23 05:06:56;;;;;;;22.27;9.00;;;;;;;-143.48;99.59;118439.88;5056420;28;20043;-67
2022/12/23 05:09:22;;;;;;;24.92;9.68;;;;;;;-143.48;99.42;118439.88;5056423;28;20025;-66
2022/12/23 05:11:47;;;;;;;23.35;9.93;;;;;;;-143.48;99.14;118439.88;5056205;28;20107;-67
2022/12/23 05:14:12;;;;;;;20.48;9.18;;;;;;;-143.48;99.58;118439.88;5038501;28;20506;-67
2022/12/23 05:16:38;;;;;;;25.67;9.95;;;;;;;-143.48;99.30;118439.88;5056086;28;20028;-67
2022/12/23 05:19:03;;;;;;;23.15;10.35;;;;;;;-143.48;99.26;118439.88;5056111;28;20111;-67
2022/12/23 05:21:29;;;;;;;20.00;9.70;;;;;;;-143.48;99.63;118439.88;5055993;28;20356;-67
2022/12/23 05:23:54;;;;;;;23.60;9.75;;;;;;;-143.48;99.17;118439.88;5055935;28;20049;-67
2022/12/23 05:26:20;;;;;;;19.17;9.35;;;;;;;-143.48;99.09;118439.88;5056146;28;20085;-67
2022/12/23 05:28:45;;;;;;;24.55;10.30;;;;;;;-143.48;99.11;118439.88;5055899;28;20119;-67
2022/12/23 05:31:11;;;;;;;23.80;9.70;;;;;;;-143.48;98.90;118439.88;5037784;28;20035;-67
2022/12/23 05:33:37;;;;;;;27.45;11.65;;;;;;;-143.48;99.00;118439.88;5037948;28;20021;-67
2022/12/23 05:36:03;;;;;;;25.77;11.93;;;;;;;-143.48;99.03;118439.88;5055979;28;20365;-66
2022/12/23 05:38:28;;;;;;;25.83;12.25;;;;;;;-143.48;99.14;118439.88;5055714;28;20521;-67
2022/12/23 05:40:54;;;;;;;25.48;13.70;;;;;;;-143.48;98.93;118439.88;5055715;28;20445;-67
2022/12/23 05:43:19;;;;;;;27.80;14.98;;;;;;;-143.48;98.61;118439.88;5055641;28;20024;-67
2022/12/23 05:45:45;;;;;;;28.80;14.80;;;;;;;-143.48;98.78;118439.88;5037714;28;20029;-67
2022/12/23 05:48:10;;;;;;;28.38;14.50;;;;;;;-143.48;98.66;118439.88;5055531;28;20449;-66
2022/12/23 05:50:37;;;;;;;24.23;12.30;;;;;;;-143.48;98.29;118439.88;5055377;28;20052;-67
2022/12/23 05:53:03;;;;;;;20.92;9.75;;;;;;;-143.48;98.48;118439.88;5055300;28;20385;-67
2022/12/23 05:55:28;;;;;;;18.10;9.00;;;;;;;-143.48;98.79;118439.88;5055332;28;20021;-66
2022/12/23 05:57:53;;;;;;;17.00;8.48;;;;;;;-143.48;98.51;118439.88;5055463;28;20411;-67
2022/12/23 06:00:19;;;;;;;20.17;8.55;;;;;;;-143.48;98.45;118439.88;5055256;28;20463;-67
2022/12/23 06:02:45;;;;;;;20.58;8.23;;;;;;;-143.48;98.72;118439.88;5055148;28;20120;-67
2022/12/23 06:05:11;;;;;;;13.98;8.32;;;;;;;-143.48;98.71;118439.88;5055094;28;20381;-67
2022/12/23 06:07:38;;;;;;;14.02;7.68;;;;;;;-143.48;99.09;118439.88;5055027;28;20070;-66
2022/12/23 06:10:05;;;;;;;14.63;7.95;;;;;;;-143.48;99.45;118439.88;5055012;28;20021;-67
2022/12/23 06:12:30;;;;;;;12.32;7.35;;;;;;;-143.48;98.93;118439.88;5054924;28;20540;-66
2022/12/23 06:14:56;;;;;;;13.07;7.40;;;;;;;-143.48;98.92;118439.88;5054255;28;20052;-66
2022/12/23 06:17:21;;;;;;;19.48;7.30;;;;;;;-143.48;99.88;118439.88;5054730;28;20028;-67
2022/12/23 06:19:47;;;;;;;11.48;7.38;;;;;;;-143.48;99.62;118439.88;5036815;28;20017;-66
2022/12/23 06:22:12;;;;;;;10.73;6.85;;;;;;;-143.48;99.19;118439.88;5054854;28;20048;-66
2022/12/23 06:24:38;;;;;;;11.85;7.18;;;;;;;-143.48;99.13;118439.88;5054713;28;20056;-67
2022/12/23 06:27:03;;;;;;;11.20;7.22;;;;;;;-143.48;99.23;118439.88;5054495;28;20045;-67
2022/12/23 06:29:28;;;;;;;10.77;6.93;;;;;;;-143.48;99.30;118439.88;5054265;28;20105;-67
2022/12/23 06:31:54;;;;;;;11.18;6.75;;;;;;;-143.48;99.07;118439.88;5054740;28;20049;-67
2022/12/23 06:34:19;;;;;;;10.98;6.70;;;;;;;-143.48;99.05;118439.88;5054646;28;20096;-66
2022/12/23 06:36:44;;;;;;;11.88;6.68;;;;;;;-143.48;99.13;118439.88;5054398;28;20079;-67
2022/12/23 06:39:10;;;;;;;11.38;7.00;;;;;;;-143.48;98.97;118439.88;5054414;28;20056;-67
2022/12/23 06:41:35;;;;;;;11.32;7.10;;;;;;;-143.48;98.90;118439.88;5054402;28;20372;-67
2022/12/23 06:44:00;;;;;;;12.57;7.35;;;;;;;-143.48;98.84;118439.88;5054238;28;20021;-67
2022/12/23 06:46:26;;;;;;;12.57;7.40;;;;;;;-143.48;99.03;118439.88;5054328;28;20024;-67
2022/12/23 06:48:52;;;;;;;12.60;7.50;;;;;;;-143.48;98.69;118439.88;5036361;28;20139;-66
2022/12/23 06:51:17;;;;;;;12.90;7.40;;;;;;;-143.48;98.81;118439.88;5054046;28;20028;-66
2022/12/23 06:53:43;;;;;;;11.02;7.32;;;;;;;-143.48;98.77;118439.88;5054181;28;20387;-67
2022/12/23 06:56:08;;;;;;;14.05;7.85;;;;;;;-143.48;98.43;118439.88;5036812;28;20028;-66
2022/12/23 06:58:36;;;;;;;15.45;8.15;;;;;;;-143.48;98.41;118439.88;5036984;28;20121;-66
2022/12/23 07:01:02;;;;;;;13.32;7.78;;;;;;;-143.48;97.81;118439.88;5036517;28;20104;-67
2022/12/23 07:03:27;;;;;;;15.68;8.43;;;;;;;-143.48;98.12;118439.88;5054995;28;20130;-67
2022/12/23 07:05:53;;;;;;;13.23;7.97;;;;;;;-143.48;97.75;118439.88;5054597;28;20466;-67
2022/12/23 07:08:18;;;;;;;17.40;8.93;;;;;;;-143.48;97.93;118439.88;5036542;28;20077;-67
2022/12/23 07:10:44;;;;;;;15.00;8.30;;;;;;;-143.48;98.16;118439.88;5036950;28;20043;-66
2022/12/23 07:13:10;;;;;;;17.08;9.40;;;;;;;-143.48;98.03;118439.88;5036342;28;20029;-67
2022/12/23 07:15:36;;;;;;;17.88;9.95;;;;;;;-143.48;97.75;118439.88;5054029;28;20032;-67
2022/12/23 07:18:02;;;;;;;15.73;9.93;;;;;;;-143.48;98.20;118439.88;5035577;28;20087;-67
2022/12/23 07:20:27;;;;;;;18.63;9.68;;;;;;;-143.48;98.05;118439.88;5053816;28;20029;-66
2022/12/23 07:22:53;;;;;;;17.02;9.75;;;;;;;-143.48;98.12;118439.88;5036176;28;20070;-66
2022/12/23 07:25:20;;;;;;;16.85;9.70;;;;;;;-143.48;97.63;118439.88;5053636;28;20511;-66
2022/12/23 07:27:51;;;;;;;20.40;10.43;;;;;;;-143.48;98.19;118439.88;5054735;28;20025;-67
2022/12/23 07:30:17;;;;;;;21.85;11.02;;;;;;;-143.48;98.51;118439.88;5054933;28;20029;-67
2022/12/23 07:32:49;;;;;;;21.10;10.95;;;;;;;-143.48;98.13;118439.88;5054140;28;20031;-67
2022/12/23 07:35:15;;;;;;;19.90;11.20;;;;;;;-143.48;97.99;118439.88;5036128;28;20025;-67
2022/12/23 07:37:40;;;;;;;22.58;11.50;;;;;;;-143.48;97.73;118439.88;5035291;28;20476;-67
2022/12/23 07:40:07;;;;;;;20.60;11.23;;;;;;;-143.48;97.75;118439.88;5053265;28;20021;-67
2022/12/23 07:42:32;;;;;;;22.23;10.90;;;;;;;-143.48;97.78;118439.88;5035726;28;20460;-67
2022/12/23 07:44:57;;;;;;;20.02;10.85;;;;;;;-143.48;98.32;118439.88;5053603;28;20035;-66
2022/12/23 07:47:23;;;;;;;19.73;10.73;;;;;;;-143.48;97.87;118439.88;5053465;28;20542;-66
2022/12/23 07:49:48;;;;;;;31.15;14.95;;;;;;;-143.48;98.25;118439.88;5053187;28;20027;-67
2022/12/23 07:52:14;;;;;;;23.52;12.10;;;;;;;-143.48;97.76;118439.88;5053435;28;20090;-67
2022/12/23 07:54:40;;;;;;;21.77;11.20;;;;;;;-143.48;98.19;118439.88;5051906;28;20052;-67
2022/12/23 07:57:05;;;;;;;23.75;11.38;;;;;;;-143.48;98.50;118439.88;5053664;28;20062;-66
2022/12/23 07:59:30;;;;;;;23.58;11.88;;;;;;;-143.48;97.81;118439.88;5053432;28;20108;-66
2022/12/23 08:01:56;;;;;;;20.92;11.93;;;;;;;-143.48;97.85;118439.88;5053207;28;20071;-66
2022/12/23 08:04:21;;;;;;;20.73;10.90;;;;;;;-143.48;97.42;118439.88;5053449;28;20040;-67
2022/12/23 08:06:47;;;;;;;22.48;11.45;;;;;;;-143.48;97.45;118439.88;5035264;28;20376;-67
2022/12/23 08:09:12;;;;;;;20.45;10.93;;;;;;;-143.48;98.09;118439.88;5053082;28;20025;-66
2022/12/23 08:11:37;;;;;;;18.55;10.55;;;;;;;-143.48;97.85;118439.88;5052931;28;20456;-66
2022/12/23 08:14:02;;;;;;;22.90;10.88;;;;;;;-143.48;97.96;118439.88;5053043;28;20028;-67
2022/12/23 08:16:28;;;;;;;20.65;11.30;;;;;;;-143.48;98.44;118439.88;5052835;28;20059;-67
2022/12/23 08:18:53;;;;;;;19.63;10.63;;;;;;;-143.48;98.49;118439.88;5052899;28;20021;-67
2022/12/23 08:21:19;;;;;;;20.52;10.80;;;;;;;-143.48;97.50;118439.88;5035346;28;20021;-67
2022/12/23 08:23:47;;;;;;;19.83;10.30;;;;;;;-143.48;97.94;118439.88;5052787;28;20141;-67
2022/12/23 08:26:21;;;;;;;19.60;10.60;;;;;;;-143.48;98.45;118439.88;5052920;28;20384;-67
2022/12/23 08:28:47;;;;;;;19.35;10.23;;;;;;;-143.48;98.25;118439.88;5035085;28;20035;-67
2022/12/23 08:31:15;;;;;;;19.05;10.27;;;;;;;-143.48;98.22;118439.88;5051474;28;20025;-67
2022/12/23 08:33:43;;;;;;;19.92;9.80;;;;;;;-143.48;97.84;118439.88;5052922;28;20025;-67
2022/12/23 08:36:12;;;;;;;17.95;9.88;;;;;;;-143.48;97.73;118439.88;5052880;28;20064;-67
2022/12/23 08:38:38;;;;;;;21.05;10.52;;;;;;;-143.48;97.49;118439.88;5055625;28;20039;-67
2022/12/23 08:41:11;;;;;;;21.30;10.50;;;;;;;-143.48;97.96;118439.88;5038678;28;20025;-67
2022/12/23 08:43:37;;;;;;;21.65;11.05;;;;;;;-143.48;97.86;118439.88;5038793;28;20048;-67
2022/12/23 08:46:04;;;;;;;23.02;10.82;;;;;;;-143.48;97.72;118439.88;5056351;28;20029;-67
2022/12/23 08:48:30;;;;;;;24.23;11.57;;;;;;;-143.48;98.27;118439.88;5056385;28;20427;-67
2022/12/23 08:50:55;;;;;;;21.77;11.32;;;;;;;-143.48;98.04;118439.88;5056136;28;20029;-67
2022/12/23 08:53:20;;;;;;;22.90;10.57;;;;;;;-143.48;97.81;118439.88;5038258;28;20060;-67
2022/12/23 08:55:47;;;;;;;22.60;11.73;;;;;;;-143.48;97.76;118439.88;5056465;28;20056;-67
2022/12/23 08:58:14;;;;;;;21.05;10.98;;;;;;;-143.48;97.39;118439.88;5056392;28;20472;-66
2022/12/23 09:00:40;;;;;;;22.75;11.05;;;;;;;-143.48;97.37;118439.88;5056250;28;20333;-66
2022/12/23 09:03:06;;;;;;;23.00;10.95;;;;;;;-143.48;98.04;118439.88;5056285;28;20083;-66
2022/12/23 09:05:32;;;;;;;20.17;10.40;;;;;;;-143.48;97.77;118439.88;5056457;28;20024;-67
2022/12/23 09:07:58;;;;;;;22.23;11.05;;;;;;;-143.48;97.50;118439.88;5056440;28;20033;-66
2022/12/23 09:10:24;;;;;;;25.52;11.80;;;;;;;-143.48;97.60;118439.88;5056043;28;20090;-67
2022/12/23 09:12:50;;;;;;;23.05;12.10;;;;;;;-143.48;97.72;118439.88;5056164;28;20032;-67
2022/12/23 09:15:16;;;;;;;26.35;12.80;;;;;;;-143.48;97.63;118439.88;5056101;28;20033;-66
2022/12/23 09:17:42;;;;;;;26.35;13.55;;;;;;;-143.48;97.52;118439.88;5037946;28;20016;-66
2022/12/23 09:20:07;;;;;;;24.33;12.43;;;;;;;-143.48;97.38;118439.88;5055497;28;20429;-66
2022/12/23 09:22:33;;;;;;;26.08;12.55;;;;;;;-143.48;97.88;118439.88;5055647;28;20029;-67
2022/12/23 09:24:58;;;;;;;28.33;12.68;;;;;;;-143.48;98.55;118439.88;5037736;28;20041;-66
2022/12/23 09:27:24;;;;;;;26.13;12.13;;;;;;;-143.48;98.59;118439.88;5056022;28;20073;-66
2022/12/23 09:29:49;;;;;;;25.70;12.20;;;;;;;-143.48;98.04;118439.88;5055560;28;20029;-67
2022/12/23 09:32:14;;;;;;;31.83;12.52;;;;;;;-143.48;98.01;118439.88;5055802;28;20115;-66
2022/12/23 09:34:40;;;;;;;29.63;12.25;;;;;;;-143.48;98.87;118439.88;5055540;28;20021;-66
2022/12/23 09:37:05;;;;;;;38.38;12.40;;;;;;;-143.48;98.33;118439.88;5055736;28;20056;-66
2022/12/23 09:39:30;;;;;;;40.17;12.30;;;;;;;-143.48;99.42;118439.88;5055706;28;20504;-67
2022/12/23 09:42:12;;;;;;;41.38;14.68;;;;;;;-143.48;99.23;118439.88;5055341;28;20089;-67
2022/12/23 09:44:37;;;;;;;50.15;13.18;;;;;;;-143.48;99.48;118439.88;5055227;28;20380;-67
2022/12/23 09:47:07;;;;;;;68.07;13.70;;;;;;;-143.48;99.70;118439.88;5055211;28;20100;-68
2022/12/23 09:49:33;;;;;;;76.47;14.38;;;;;;;-143.48;100.00;118439.88;5053990;28;20032;-67
2022/12/23 09:52:04;;;;;;;94.25;13.98;;;;;;;-143.48;100.00;118439.88;5055356;28;20469;-67
2022/12/23 09:54:40;;;;;;;82.10;13.20;;;;;;;-143.48;100.00;118439.88;5055151;28;20028;-67
2022/12/23 09:57:38;;;;;;;78.93;14.38;;;;;;;-143.48;100.00;118439.88;5055529;28;20374;-67
2022/12/23 10:00:11;;;;;;;66.40;13.77;;;;;;;-143.48;100.00;118439.88;5055251;28;20104;-67
2022/12/23 10:03:00;;;;;;;48.97;12.43;;;;;;;-143.48;100.00;118439.88;5054992;28;20049;-67
2022/12/23 10:05:59;;;;;;;52.35;12.82;;;;;;;-143.48;100.00;118439.88;5055569;28;20037;-66
2022/12/23 10:08:35;;;;;;;39.83;12.05;;;;;;;-143.48;100.00;118439.88;5055074;28;20357;-67
2022/12/23 10:11:14;;;;;;;36.20;12.40;;;;;;;-143.48;100.00;118439.88;5055194;28;20468;-66
2022/12/23 10:14:02;;;;;;;26.83;10.43;;;;;;;-143.48;100.00;118439.88;5054970;28;20103;-66
2022/12/23 10:16:33;;;;;;;34.15;11.48;;;;;;;-143.48;100.00;118439.88;5054856;28;20491;-66
2022/12/23 10:19:02;;;;;;;27.27;10.90;;;;;;;-143.48;99.70;118439.88;5054678;28;20025;-67
2022/12/23 10:21:39;;;;;;;31.73;10.88;;;;;;;-143.48;100.00;118439.88;5053334;28;20368;-67
2022/12/23 10:24:15;;;;;;;29.65;10.45;;;;;;;-143.48;99.76;118439.88;5054780;28;20049;-67
2022/12/23 10:26:48;;;;;;;27.30;10.55;;;;;;;-143.48;99.26;118439.88;5053435;28;20044;-66
2022/12/23 10:29:17;;;;;;;26.08;10.15;;;;;;;-143.48;99.19;118439.88;5054945;28;20496;-67
2022/12/23 10:31:48;;;;;;;25.33;9.57;;;;;;;-143.48;98.60;118439.88;5054941;28;20419;-67
2022/12/23 10:34:24;;;;;;;25.30;9.70;;;;;;;-143.48;98.41;118439.88;5054622;28;20025;-67
2022/12/23 10:37:06;;;;;;;26.40;10.10;;;;;;;-143.48;99.35;118439.88;5054647;28;20032;-66
2022/12/23 10:39:36;;;;;;;23.45;9.48;;;;;;;-143.48;99.24;118439.88;5054611;28;20103;-67
2022/12/23 10:42:13;;;;;;;19.83;8.38;;;;;;;-143.48;99.07;118439.88;5054389;28;20082;-66
2022/12/23 10:44:41;;;;;;;22.25;9.07;;;;;;;-143.48;98.64;118439.88;5036474;28;20468;-66
2022/12/23 10:47:31;;;;;;;22.63;8.70;;;;;;;-143.48;98.42;118439.88;5054213;28;20025;-66
2022/12/23 10:50:05;;;;;;;23.75;8.55;;;;;;;-143.48;99.07;118439.88;5036079;28;20025;-66
2022/12/23 10:52:36;;;;;;;24.20;9.40;;;;;;;-143.48;100.00;118439.88;5054287;28;20103;-66
2022/12/23 10:55:01;;;;;;;22.50;9.27;;;;;;;-143.48;100.00;118439.88;5054079;28;20078;-67
2022/12/23 10:57:28;;;;;;;22.38;9.15;;;;;;;-143.48;99.37;118439.88;5054177;28;20364;-67
2022/12/23 10:59:53;;;;;;;22.50;9.00;;;;;;;-143.48;99.21;118439.88;5054036;28;20029;-67
2022/12/23 11:02:40;;;;;;;25.05;9.48;;;;;;;-143.48;99.26;118439.88;5053875;28;20461;-67
2022/12/23 11:05:14;;;;;;;24.38;9.45;;;;;;;-143.48;99.17;118439.88;5053951;28;20052;-66
2022/12/23 11:07:40;;;;;;;24.00;9.60;;;;;;;-143.48;98.91;118439.88;5053724;28;20105;-67
2022/12/23 11:10:14;;;;;;;24.15;9.52;;;;;;;-143.48;99.09;118439.88;5054635;28;20045;-67
2022/12/23 11:12:46;;;;;;;31.20;10.90;;;;;;;-143.48;99.25;118439.88;5053678;28;20076;-67
2022/12/23 11:15:31;;;;;;;28.75;10.88;;;;;;;-143.48;99.27;118439.88;5036027;28;20433;-67
2022/12/23 11:18:13;;;;;;;33.22;12.23;;;;;;;-143.48;99.74;118439.88;5053633;28;20028;-67
2022/12/23 11:20:40;;;;;;;30.45;11.38;;;;;;;-143.48;99.55;118439.88;5053734;28;20048;-67
2022/12/23 11:23:24;;;;;;;32.25;12.55;;;;;;;-143.48;98.69;118439.88;5053707;28;20488;-67
2022/12/23 11:26:02;;;;;;;35.90;13.75;;;;;;;-143.48;99.29;118439.88;5053614;28;20495;-66
2022/12/23 11:28:29;;;;;;;35.03;12.57;;;;;;;-143.48;100.00;118439.88;5053698;28;20025;-67
2022/12/23 11:31:08;;;;;;;30.70;12.48;;;;;;;-143.48;100.00;118439.88;5053508;28;20021;-67
2022/12/23 11:33:44;;;;;;;32.10;12.55;;;;;;;-143.48;100.00;118439.88;5053559;28;20036;-67
2022/12/23 11:36:12;;;;;;;29.10;12.10;;;;;;;-143.48;100.00;118439.88;5035753;28;20017;-67
2022/12/23 11:38:49;;;;;;;29.33;11.43;;;;;;;-143.48;100.00;118439.88;5053374;28;20100;-68